EW6370 Weather Reports


Display with metric or nautical units.
time (UTC)temp
F
wind
direction
speed
MPH
gust
MPH
rain 1hr
in
rain 24hr
in
rain mn
in
humidity
%
barometer
mb
20181119180027 37 146 0.0 3.0 0.00 0.06 0.06 82 1014.5
20181119174511 37 138 1.0 5.0 0.00 0.06 0.06 82 1014.4
20181119173027 37 155 0.0 4.0 0.00 0.06 0.06 82 1014.6
20181119171522 37 128 0.0 3.0 0.00 0.06 0.06 82 1014.7
20181119170029 37 125 0.0 3.0 0.00 0.06 0.06 82 1014.5
20181119164508 37 144 0.0 4.0 0.00 0.06 0.06 82 1014.4
20181119163041 37 148 1.0 5.0 0.00 0.06 0.06 82 1014.6
20181119161519 37 173 0.0 5.0 0.00 0.06 0.06 82 1014.5
20181119160021 37 145 1.0 5.0 0.00 0.06 0.06 82 1014.4
20181119154509 37 135 2.0 9.0 0.00 0.06 0.06 81 1014.3
20181119153008 37 133 0.0 3.0 0.00 0.06 0.06 82 1013.9
20181119151523 38 133 1.0 5.0 0.00 0.06 0.06 81 1014.0
20181119150003 38 137 1.0 4.0 0.00 0.06 0.06 81 1014.0
20181119144502 38 134 1.0 5.0 0.00 0.06 0.06 82 1013.8
20181119143003 38 137 0.0 3.0 0.00 0.06 0.06 83 1013.9
20181119141501 38 133 0.0 4.0 0.00 0.06 0.06 83 1014.1
20181119140146 37 141 0.0 3.0 0.00 0.06 0.06 84 1014.1
20181119134711 37 137 0.0 2.0 0.00 0.06 0.06 85 1013.8
20181119133211 37 146 1.0 4.0 0.01 0.06 0.06 85 1013.6
20181119131737 37 145 0.0 3.0 0.01 0.06 0.06 85 1013.7
20181119130130 37 139 0.0 4.0 0.01 0.06 0.06 85 1013.6
20181119124624 37 133 0.0 1.0 0.01 0.06 0.06 85 1013.7
20181119123216 37 128 0.0 2.0 0.00 0.06 0.06 85 1013.7
20181119121648 37 127 0.0 4.0 0.00 0.06 0.06 85 1013.8
20181119120114 37 135 0.0 3.0 0.00 0.06 0.06 85 1013.8
20181119114631 37 136 0.0 4.0 0.00 0.06 0.06 84 1013.7
20181119113123 37 134 0.0 4.0 0.00 0.06 0.06 84 1013.8
20181119111635 37 137 1.0 3.0 0.00 0.06 0.06 84 1013.7
20181119110225 37 145 0.0 3.0 0.00 0.06 0.06 84 1013.7
20181119104634 37 141 0.0 2.0 0.01 0.06 0.06 84 1013.6
20181119103313 37 145 0.0 2.0 0.01 0.06 0.06 84 1013.5
20181119101647 37 145 0.0 2.0 0.01 0.06 0.06 84 1013.5
20181119100132 37 144 0.0 3.0 0.00 0.05 0.05 84 1013.5
20181119094605 37 143 0.0 4.0 0.00 0.05 0.05 84 1013.5
20181119093139 37 141 0.0 4.0 0.00 0.05 0.05 85 1013.6
20181119091610 36 141 0.0 3.0 0.00 0.05 0.05 85 1013.5
20181119090141 36 139 0.0 3.0 0.00 0.05 0.05 85 1013.4
20181119084654 36 141 0.0 1.0 0.00 0.05 0.05 85 1013.4
20181119083302 36 145 0.0 2.0 0.01 0.05 0.05 85 1013.2
20181119081614 36 147 1.0 3.0 0.01 0.05 0.05 85 1013.1
20181119080127 36 139 0.0 2.0 0.01 0.05 0.05 85 1013.1
20181119074629 36 137 0.0 2.0 0.02 0.05 0.05 85 1013.2
20181119073223 36 136 1.0 3.0 0.01 0.04 0.04 85 1013.2
20181119071618 36 128 0.0 2.0 0.01 0.04 0.04 85 1013.2
20181119070105 36 142 1.0 4.0 0.01 0.04 0.04 85 1013.2
20181119064558 36 137 0.0 4.0 0.00 0.03 0.03 84 1013.2
20181119063135 36 138 0.0 5.0 0.00 0.03 0.03 84 1013.2
20181119061627 36 142 0.0 4.0 0.00 0.03 0.03 84 1013.1
20181119060145 36 139 3.0 6.0 0.00 0.03 0.03 84 1012.9
20181119054638 36 93 0.0 3.0 0.00 0.03 0.03 84 1012.9
20181119053109 36 336 0.0 3.0 0.00 0.03 0.03 85 1012.8
20181119051554 36 137 1.0 4.0 0.00 0.03 0.03 84 1012.8
20181119050117 36 136 1.0 5.0 0.00 0.03 0.03 84 1012.8
20181119044604 36 162 0.0 3.0 0.01 0.03 0.03 85 1012.8
20181119043058 36 138 0.0 3.0 0.01 0.03 0.03 85 1012.8
20181119041611 36 137 0.0 3.0 0.02 0.03 0.03 85 1012.8
20181119040103 36 137 0.0 2.0 0.02 0.03 0.03 85 1012.8
20181119034539 36 138 0.0 2.0 0.02 0.02 0.02 85 1012.8
20181119033045 36 138 0.0 2.0 0.02 0.02 0.02 85 1012.8
20181119031601 36 137 0.0 3.0 0.02 0.02 0.02 85 1012.8
20181119030116 36 137 0.0 4.0 0.01 0.01 0.01 85 1012.9
20181119024542 36 166 1.0 4.0 0.01 0.01 0.01 85 1013.1
20181119023034 36 140 0.0 3.0 0.00 0.00 0.00 85 1013.2
20181119021532 36 140 0.0 1.0 0.00 0.00 0.00 85 1013.2
20181119020023 36 140 0.0 3.0 0.00 0.00 0.00 85 1013.3
20181119014555 36 140 0.0 4.0 0.00 0.00 0.00 85 1013.4
20181119013013 36 135 0.0 3.0 0.00 0.00 0.00 85 1013.6
20181119011529 36 137 1.0 3.0 0.00 0.00 0.00 84 1013.8
20181119010025 36 140 1.0 4.0 0.00 0.00 0.00 84 1014.0
20181119004503 36 147 0.0 3.0 0.00 0.00 0.00 84 1014.2
20181119003011 36 149 0.0 3.0 0.00 0.00 0.00 84 1014.2
20181119000148 36 141 0.0 3.0 0.00 0.00 0.00 83 1014.4
20181118234650 36 133 1.0 3.0 0.00 0.00 0.00 82 1014.6
20181118233134 37 141 0.0 2.0 0.00 0.00 0.00 82 1014.7
20181118231631 37 135 1.0 3.0 0.00 0.00 0.00 81 1014.9
20181118230056 37 134 1.0 3.0 0.00 0.00 0.00 80 1015.1
20181118224652 37 149 0.0 3.0 0.00 0.00 0.00 80 1015.2
20181118223114 37 148 0.0 4.0 0.00 0.00 0.00 80 1015.4
20181118221711 37 134 1.0 7.0 0.00 0.00 0.00 79 1015.6
20181118220114 37 136 0.0 3.0 0.00 0.00 0.00 79 1015.8
20181118214728 37 137 2.0 5.0 0.00 0.00 0.00 79 1015.8
20181118213056 37 143 1.0 2.0 0.00 0.00 0.00 78 1016.0
20181118211615 37 145 0.0 2.0 0.00 0.00 0.00 78 1016.1
20181118210122 37 143 0.0 3.0 0.00 0.00 0.00 77 1016.3
20181118204553 37 153 0.0 2.0 0.00 0.00 0.00 77 1016.4
20181118203054 37 146 0.0 2.0 0.00 0.00 0.00 76 1016.6
20181118201555 37 135 0.0 3.0 0.00 0.00 0.00 76 1016.6
20181118200031 37 138 0.0 2.0 0.00 0.00 0.00 75 1016.7
20181118194545 38 138 1.0 4.0 0.00 0.00 0.00 75 1016.8
20181118193030 38 141 0.0 3.0 0.00 0.00 0.00 75 1016.9
20181118191542 37 138 0.0 4.0 0.00 0.00 0.00 75 1017.0
20181118190027 38 137 0.0 3.0 0.00 0.00 0.00 75 1017.2
20181118184532 38 137 0.0 3.0 0.00 0.00 0.00 74 1017.4
20181118183022 38 137 0.0 3.0 0.00 0.00 0.00 73 1017.5
20181118181512 38 137 0.0 5.0 0.00 0.00 0.00 74 1017.7